DNCA

Margaret Ekpo International Airport

Calabar, Nigeria
TAF DNCA 210340Z 2106/2212 24005KT 5000 -RA BKN007 BECMG 2108/2110 7000 NSW BKN009 FEW020CB TEMPO 2110/2114 5000 -TSRA
Issued Valid From Valid To
Aug-21 @ 03:40 UTC
(14 hours ago)
Aug-21 @ 06:00 UTC
(12 hours ago)
Aug-22 @ 12:00 UTC
(in 18 hours)
Expired Click to View Aug-21 @ 06:00 to Aug-21 @ 08:00
TAF DNCA 210340Z 2106/2212 24005KT 5000 -RA BKN007
Wind Visibility Clouds Conditions
240° at 5 knots 5,005 meters
  • Broken at 700' AGL
  • Light Rain
Becoming Aug-21 @ 08:00 to Aug-22 @ 12:00
BECMG 2108/2110 7000 NSW BKN009 FEW020CB
Wind Visibility Clouds Conditions
240° at 5 knots 7,001 meters
  • Broken at 900' AGL
  • Few at 2,000' AGL
Expired Click to View Aug-21 @ 10:00 to Aug-21 @ 14:00
TEMPO 2110/2114 5000 -TSRA
Visibility Conditions
5,005 meters
  • Light Thunderstorm
  • Light Rain
TAF DNCA 210340Z 2106/2212 24005KT 5000 -RA BKN007 BECMG 2108/2110 7000 NSW BKN009 FEW020CB TEMPO 2110/2114 5000 -TSRA
Issued Aug-21 @ 03:40 UTC
(14 hours ago)
Valid From Aug-21 @ 06:00 UTC
(12 hours ago)
Valid To Aug-22 @ 12:00 UTC
(in 18 hours)
Aug-21 @ 06:00 - Aug-21 @ 08:00
Wind Visibility
240° at 5 knots 5,005 meters
Clouds
  • Broken at 700' AGL
Conditions
  • Light Rain
Becoming Aug-21 @ 08:00 - Aug-22 @ 12:00
Wind Visibility
240° at 5 knots 7,001 meters
Clouds
  • Broken at 900' AGL
  • Few at 2,000' AGL
Conditions
Aug-21 @ 10:00 - Aug-21 @ 14:00
Conditions
  • Light Thunderstorm
  • Light Rain